sensor_id;sensor_type;location;lat;lon;timestamp;temperature;humidity
17341;DHT22;8788;49.930;8.660;2022-09-02T16:04:50;27.30;50.70
17341;DHT22;8788;49.930;8.660;2022-09-02T16:07:17;27.10;50.90
17341;DHT22;8788;49.930;8.660;2022-09-02T16:09:45;27.10;50.80
17341;DHT22;8788;49.930;8.660;2022-09-02T16:12:12;27.00;50.90
17341;DHT22;8788;49.930;8.660;2022-09-02T16:14:40;27.00;51.00
17341;DHT22;8788;49.930;8.660;2022-09-02T16:17:07;26.90;50.70
17341;DHT22;8788;49.930;8.660;2022-09-02T16:19:35;26.90;50.70
17341;DHT22;8788;49.930;8.660;2022-09-02T16:22:03;26.80;50.90
17341;DHT22;8788;49.930;8.660;2022-09-02T16:24:30;26.80;50.90
17341;DHT22;8788;49.930;8.660;2022-09-02T16:26:58;26.80;51.10
17341;DHT22;8788;49.930;8.660;2022-09-02T16:29:25;26.80;51.30
17341;DHT22;8788;49.930;8.660;2022-09-02T16:31:54;26.80;51.30
17341;DHT22;8788;49.930;8.660;2022-09-02T16:34:22;26.80;50.90
17341;DHT22;8788;49.930;8.660;2022-09-02T16:36:49;26.70;51.10
17341;DHT22;8788;49.930;8.660;2022-09-02T16:39:18;26.70;51.10
17341;DHT22;8788;49.930;8.660;2022-09-02T16:41:47;26.60;51.00
17341;DHT22;8788;49.930;8.660;2022-09-02T16:44:16;26.60;51.20
17341;DHT22;8788;49.930;8.660;2022-09-02T16:46:45;26.50;51.30
17341;DHT22;8788;49.930;8.660;2022-09-02T16:49:14;26.50;51.40
17341;DHT22;8788;49.930;8.660;2022-09-02T16:51:43;26.50;51.40
17341;DHT22;8788;49.930;8.660;2022-09-02T16:54:11;26.50;51.50
17341;DHT22;8788;49.930;8.660;2022-09-02T16:56:39;26.50;51.70
17341;DHT22;8788;49.930;8.660;2022-09-02T16:59:08;26.50;51.80
17341;DHT22;8788;49.930;8.660;2022-09-02T17:01:36;26.50;51.70
17341;DHT22;8788;49.930;8.660;2022-09-02T17:04:04;26.40;51.80
17341;DHT22;8788;49.930;8.660;2022-09-02T17:06:31;26.30;51.70
17341;DHT22;8788;49.930;8.660;2022-09-02T17:08:59;26.30;51.90
17341;DHT22;8788;49.930;8.660;2022-09-02T17:11:27;26.30;52.00
17341;DHT22;8788;49.930;8.660;2022-09-02T17:13:58;26.30;52.00
17341;DHT22;8788;49.930;8.660;2022-09-02T17:16:27;26.20;52.00
17341;DHT22;8788;49.930;8.660;2022-09-02T17:18:55;26.10;52.00
17341;DHT22;8788;49.930;8.660;2022-09-02T17:21:25;26.10;52.20
17341;DHT22;8788;49.930;8.660;2022-09-02T17:23:53;26.00;52.10
17341;DHT22;8788;49.930;8.660;2022-09-02T17:26:23;25.90;52.20
17341;DHT22;8788;49.930;8.660;2022-09-02T17:28:51;25.90;52.30
17341;DHT22;8788;49.930;8.660;2022-09-02T17:31:24;25.80;52.30
17341;DHT22;8788;49.930;8.660;2022-09-02T17:33:53;25.70;52.30
17341;DHT22;8788;49.930;8.660;2022-09-02T17:36:21;25.70;52.40
17341;DHT22;8788;49.930;8.660;2022-09-02T17:38:54;25.60;52.50
17341;DHT22;8788;49.930;8.660;2022-09-02T17:41:21;25.50;52.40
17341;DHT22;8788;49.930;8.660;2022-09-02T17:44:06;25.50;52.50
17341;DHT22;8788;49.930;8.660;2022-09-02T17:46:35;25.40;52.60
17341;DHT22;8788;49.930;8.660;2022-09-02T17:49:02;25.30;52.70
17341;DHT22;8788;49.930;8.660;2022-09-02T17:51:30;25.30;52.80
17341;DHT22;8788;49.930;8.660;2022-09-02T17:53:57;25.20;52.90
17341;DHT22;8788;49.930;8.660;2022-09-02T17:59:35;25.10;53.00
17341;DHT22;8788;49.930;8.660;2022-09-02T18:02:27;25.00;53.10
17341;DHT22;8788;49.930;8.660;2022-09-02T18:05:02;24.90;53.20
17341;DHT22;8788;49.930;8.660;2022-09-02T18:07:37;24.80;53.30
17341;DHT22;8788;49.930;8.660;2022-09-02T18:10:07;24.80;53.50
17341;DHT22;8788;49.930;8.660;2022-09-02T18:12:35;24.70;53.60
17341;DHT22;8788;49.930;8.660;2022-09-02T18:15:03;24.60;53.70
17341;DHT22;8788;49.930;8.660;2022-09-02T18:17:35;24.60;53.80
17341;DHT22;8788;49.930;8.660;2022-09-02T18:20:06;24.50;53.90
17341;DHT22;8788;49.930;8.660;2022-09-02T18:25:44;24.40;54.00
17341;DHT22;8788;49.930;8.660;2022-09-02T18:28:22;24.30;54.00
17341;DHT22;8788;49.930;8.660;2022-09-02T18:31:02;24.30;54.20
17341;DHT22;8788;49.930;8.660;2022-09-02T18:33:53;24.20;54.10
17341;DHT22;8788;49.930;8.660;2022-09-02T18:36:32;24.20;54.30
17341;DHT22;8788;49.930;8.660;2022-09-02T18:42:05;24.10;54.50
17341;DHT22;8788;49.930;8.660;2022-09-02T18:44:44;24.00;54.50
17341;DHT22;8788;49.930;8.660;2022-09-02T18:47:19;23.90;54.50
17341;DHT22;8788;49.930;8.660;2022-09-02T18:49:49;23.90;54.70
17341;DHT22;8788;49.930;8.660;2022-09-02T18:52:18;23.80;54.80
17341;DHT22;8788;49.930;8.660;2022-09-02T18:54:52;23.80;55.00
17341;DHT22;8788;49.930;8.660;2022-09-02T18:57:24;23.70;55.00
17341;DHT22;8788;49.930;8.660;2022-09-02T19:00:00;23.70;55.10
17341;DHT22;8788;49.930;8.660;2022-09-02T19:02:33;23.70;55.20
17341;DHT22;8788;49.930;8.660;2022-09-02T19:05:04;23.70;55.20
17341;DHT22;8788;49.930;8.660;2022-09-02T19:07:35;23.60;55.20
17341;DHT22;8788;49.930;8.660;2022-09-02T19:10:20;23.50;55.30
17341;DHT22;8788;49.930;8.660;2022-09-02T19:12:48;23.50;55.50
17341;DHT22;8788;49.930;8.660;2022-09-02T19:15:15;23.40;55.50
17341;DHT22;8788;49.930;8.660;2022-09-02T19:17:43;23.40;55.60
17341;DHT22;8788;49.930;8.660;2022-09-02T19:20:11;23.40;55.70
17341;DHT22;8788;49.930;8.660;2022-09-02T19:22:42;23.40;55.80
17341;DHT22;8788;49.930;8.660;2022-09-02T19:25:13;23.40;55.80
17341;DHT22;8788;49.930;8.660;2022-09-02T19:27:43;23.30;55.90
17341;DHT22;8788;49.930;8.660;2022-09-02T19:30:13;23.30;56.00
17341;DHT22;8788;49.930;8.660;2022-09-02T19:32:45;23.30;56.10
17341;DHT22;8788;49.930;8.660;2022-09-02T19:35:15;23.20;56.20
17341;DHT22;8788;49.930;8.660;2022-09-02T19:37:44;23.20;56.20
17341;DHT22;8788;49.930;8.660;2022-09-02T19:40:13;23.10;56.20
17341;DHT22;8788;49.930;8.660;2022-09-02T19:42:42;23.10;56.40
17341;DHT22;8788;49.930;8.660;2022-09-02T19:45:09;23.10;56.40
17341;DHT22;8788;49.930;8.660;2022-09-02T19:47:36;23.00;56.50
17341;DHT22;8788;49.930;8.660;2022-09-02T19:50:05;23.00;56.60
17341;DHT22;8788;49.930;8.660;2022-09-02T19:52:40;22.90;56.70
17341;DHT22;8788;49.930;8.660;2022-09-02T19:55:08;22.90;56.80
17341;DHT22;8788;49.930;8.660;2022-09-02T19:57:36;22.80;56.80
17341;DHT22;8788;49.930;8.660;2022-09-02T20:00:04;22.80;56.90
17341;DHT22;8788;49.930;8.660;2022-09-02T20:02:32;22.70;56.90
17341;DHT22;8788;49.930;8.660;2022-09-02T20:05:00;22.70;57.10
17341;DHT22;8788;49.930;8.660;2022-09-02T20:07:27;22.60;57.40
17341;DHT22;8788;49.930;8.660;2022-09-02T20:09:55;22.60;57.50
17341;DHT22;8788;49.930;8.660;2022-09-02T20:12:22;22.50;57.50
17341;DHT22;8788;49.930;8.660;2022-09-02T20:14:49;22.50;57.50
17341;DHT22;8788;49.930;8.660;2022-09-02T20:17:19;22.40;57.60
17341;DHT22;8788;49.930;8.660;2022-09-02T20:19:47;22.30;57.70
17341;DHT22;8788;49.930;8.660;2022-09-02T20:22:15;22.30;57.80
17341;DHT22;8788;49.930;8.660;2022-09-02T20:24:43;22.20;57.90
17341;DHT22;8788;49.930;8.660;2022-09-02T20:27:20;22.20;58.20
17341;DHT22;8788;49.930;8.660;2022-09-02T20:30:04;22.10;58.40
17341;DHT22;8788;49.930;8.660;2022-09-02T20:32:41;22.00;58.60
17341;DHT22;8788;49.930;8.660;2022-09-02T20:35:31;21.90;58.70
17341;DHT22;8788;49.930;8.660;2022-09-02T20:38:05;21.80;58.80
17341;DHT22;8788;49.930;8.660;2022-09-02T20:40:39;21.70;58.90
17341;DHT22;8788;49.930;8.660;2022-09-02T20:43:33;21.70;58.90
17341;DHT22;8788;49.930;8.660;2022-09-02T20:46:14;21.70;59.20
17341;DHT22;8788;49.930;8.660;2022-09-02T20:48:54;21.60;59.20
17341;DHT22;8788;49.930;8.660;2022-09-02T20:51:29;21.60;59.30
17341;DHT22;8788;49.930;8.660;2022-09-02T20:54:16;21.50;60.00
17341;DHT22;8788;49.930;8.660;2022-09-02T20:56:53;21.50;59.60
17341;DHT22;8788;49.930;8.660;2022-09-02T20:59:30;21.50;59.70
17341;DHT22;8788;49.930;8.660;2022-09-02T21:01:59;21.50;60.40
17341;DHT22;8788;49.930;8.660;2022-09-02T21:04:32;21.50;59.80
17341;DHT22;8788;49.930;8.660;2022-09-02T21:07:05;21.50;59.80
17341;DHT22;8788;49.930;8.660;2022-09-02T21:09:45;21.50;59.90
17341;DHT22;8788;49.930;8.660;2022-09-02T21:12:21;21.50;60.00
17341;DHT22;8788;49.930;8.660;2022-09-02T21:14:58;21.40;60.00
17341;DHT22;8788;49.930;8.660;2022-09-02T21:17:35;21.40;60.00
17341;DHT22;8788;49.930;8.660;2022-09-02T21:20:09;21.40;60.90
17341;DHT22;8788;49.930;8.660;2022-09-02T21:22:41;21.40;60.20
17341;DHT22;8788;49.930;8.660;2022-09-02T21:25:14;21.40;60.40
17341;DHT22;8788;49.930;8.660;2022-09-02T21:27:47;21.40;60.40
17341;DHT22;8788;49.930;8.660;2022-09-02T21:30:20;21.40;60.40
17341;DHT22;8788;49.930;8.660;2022-09-02T21:32:49;21.30;60.60
17341;DHT22;8788;49.930;8.660;2022-09-02T21:35:20;21.30;60.70
17341;DHT22;8788;49.930;8.660;2022-09-02T21:37:50;21.20;60.80
17341;DHT22;8788;49.930;8.660;2022-09-02T21:40:20;21.20;60.90
17341;DHT22;8788;49.930;8.660;2022-09-02T21:43:00;21.20;61.00
17341;DHT22;8788;49.930;8.660;2022-09-02T21:45:37;21.20;61.10
17341;DHT22;8788;49.930;8.660;2022-09-02T21:48:17;21.10;61.00
17341;DHT22;8788;49.930;8.660;2022-09-02T21:50:55;21.10;61.10
17341;DHT22;8788;49.930;8.660;2022-09-02T21:53:37;21.10;61.30
17341;DHT22;8788;49.930;8.660;2022-09-02T21:56:18;21.10;61.50
17341;DHT22;8788;49.930;8.660;2022-09-02T21:59:17;21.00;61.50
17341;DHT22;8788;49.930;8.660;2022-09-02T22:01:53;21.00;61.70
17341;DHT22;8788;49.930;8.660;2022-09-02T22:04:36;20.90;61.70
17341;DHT22;8788;49.930;8.660;2022-09-02T22:07:11;20.90;61.80
17341;DHT22;8788;49.930;8.660;2022-09-02T22:09:47;20.90;61.90
17341;DHT22;8788;49.930;8.660;2022-09-02T22:12:16;20.80;62.00
17341;DHT22;8788;49.930;8.660;2022-09-02T22:14:50;20.80;62.10
17341;DHT22;8788;49.930;8.660;2022-09-02T22:17:28;20.80;62.20
17341;DHT22;8788;49.930;8.660;2022-09-02T22:19:58;20.70;62.20
17341;DHT22;8788;49.930;8.660;2022-09-02T22:22:30;20.70;62.40
17341;DHT22;8788;49.930;8.660;2022-09-02T22:25:00;20.70;62.50
17341;DHT22;8788;49.930;8.660;2022-09-02T22:27:30;20.70;62.50
17341;DHT22;8788;49.930;8.660;2022-09-02T22:30:03;20.70;62.60
17341;DHT22;8788;49.930;8.660;2022-09-02T22:32:37;20.70;62.60
17341;DHT22;8788;49.930;8.660;2022-09-02T22:35:10;20.70;62.70
17341;DHT22;8788;49.930;8.660;2022-09-02T22:37:46;20.60;62.60
17341;DHT22;8788;49.930;8.660;2022-09-02T22:40:18;20.60;62.80
17341;DHT22;8788;49.930;8.660;2022-09-02T22:42:50;20.60;62.90
17341;DHT22;8788;49.930;8.660;2022-09-02T22:45:21;20.50;62.90
17341;DHT22;8788;49.930;8.660;2022-09-02T22:48:12;20.50;63.10
17341;DHT22;8788;49.930;8.660;2022-09-02T22:51:05;20.50;63.20
17341;DHT22;8788;49.930;8.660;2022-09-02T22:53:50;20.40;63.40
17341;DHT22;8788;49.930;8.660;2022-09-02T22:56:25;20.30;63.40
17341;DHT22;8788;49.930;8.660;2022-09-02T22:59:15;20.40;64.40
17341;DHT22;8788;49.930;8.660;2022-09-02T23:01:49;20.30;63.60
